Time;durP1;ratioP1;P1;durP2;ratioP2;P2;SDS_P1;SDS_P2;PMS_P1;PMS_P2;Temp;Humidity;BMP_temperature;BMP_pressure;BME280_temperature;BME280_humidity;BME280_pressure;Samples;Min_cycle;Max_cycle;Signal;HPM_P1;HPM_P2
2021/09/02 00:02:05;;;;;;;28.77;14.48;;;12.80;99.90;;;;;;6703220;88;20523;-79
2021/09/02 00:12:06;;;;;;;30.77;14.10;;;12.80;99.90;;;;;;6705687;88;20313;-78
2021/09/02 00:22:06;;;;;;;31.17;14.67;;;12.60;99.90;;;;;;6708482;88;20767;-79
2021/09/02 00:32:07;;;;;;;29.10;14.63;;;12.70;99.90;;;;;;6706501;88;20540;-78
2021/09/02 00:42:08;;;;;;;28.52;13.50;;;12.70;99.90;;;;;;6705749;88;20222;-78
2021/09/02 00:52:17;;;;;;;29.20;14.30;;;12.70;99.90;;;;;;6701684;88;20178;-78
2021/09/02 01:02:19;;;;;;;27.40;14.40;;;12.70;99.90;;;;;;6705337;88;20939;-78
2021/09/02 01:12:30;;;;;;;28.77;14.50;;;12.90;99.90;;;;;;6704750;88;20252;-78
2021/09/02 01:22:31;;;;;;;32.08;15.07;;;12.80;99.90;;;;;;6704576;88;20193;-78
2021/09/02 01:32:37;;;;;;;24.02;13.73;;;12.70;99.90;;;;;;6702364;88;20194;-78
2021/09/02 01:42:38;;;;;;;33.92;15.30;;;12.80;99.90;;;;;;6704213;88;20197;-78
2021/09/02 01:52:39;;;;;;;30.55;14.87;;;12.80;99.90;;;;;;6705594;88;20274;-78
2021/09/02 02:02:40;;;;;;;32.92;15.30;;;12.60;99.90;;;;;;6705739;88;20309;-78
2021/09/02 02:12:41;;;;;;;32.72;15.52;;;12.50;99.90;;;;;;6703669;88;20194;-79
2021/09/02 02:22:43;;;;;;;36.05;16.48;;;12.50;99.90;;;;;;6700791;88;20210;-78
2021/09/02 02:32:44;;;;;;;33.00;15.85;;;12.70;99.90;;;;;;6704568;88;20270;-78
2021/09/02 02:42:45;;;;;;;29.75;14.32;;;12.70;99.90;;;;;;6704186;88;20216;-78
2021/09/02 02:52:46;;;;;;;37.90;15.60;;;12.70;99.90;;;;;;6704547;88;20191;-78
2021/09/02 03:02:47;;;;;;;32.50;14.45;;;12.70;99.90;;;;;;6701930;88;20211;-78
2021/09/02 03:12:47;;;;;;;30.75;15.45;;;12.60;99.90;;;;;;6703456;88;20748;-78
2021/09/02 03:22:47;;;;;;;32.35;15.73;;;12.60;99.90;;;;;;6703281;88;20216;-77
2021/09/02 03:32:48;;;;;;;38.80;15.95;;;12.70;99.90;;;;;;6704835;88;20239;-78
2021/09/02 03:42:49;;;;;;;32.58;14.93;;;12.50;99.90;;;;;;6702099;88;20197;-78
2021/09/02 03:52:49;;;;;;;38.92;16.87;;;12.50;99.90;;;;;;6701684;88;20191;-77
2021/09/02 04:02:50;;;;;;;42.40;17.95;;;12.50;99.90;;;;;;6703962;88;20187;-78
2021/09/02 04:12:50;;;;;;;52.88;20.50;;;12.50;99.90;;;;;;6702665;88;20308;-77
2021/09/02 04:22:51;;;;;;;46.55;18.92;;;12.70;99.90;;;;;;6704628;88;20190;-78
2021/09/02 04:32:51;;;;;;;57.92;20.62;;;12.70;99.90;;;;;;6702068;88;20191;-78
2021/09/02 04:42:52;;;;;;;55.83;20.52;;;12.60;99.90;;;;;;6703073;88;20193;-77
2021/09/02 04:52:52;;;;;;;58.28;20.58;;;12.60;99.90;;;;;;6699773;88;20294;-77
2021/09/02 05:02:53;;;;;;;57.53;19.77;;;12.70;99.90;;;;;;6698955;88;20366;-78
2021/09/02 05:12:53;;;;;;;59.28;20.80;;;12.70;99.90;;;;;;6695341;88;20215;-77
2021/09/02 05:22:54;;;;;;;58.53;20.92;;;12.60;99.90;;;;;;6699840;88;20388;-78
2021/09/02 05:32:54;;;;;;;63.60;21.30;;;12.60;99.90;;;;;;6699195;88;20205;-77
2021/09/02 05:42:55;;;;;;;55.88;18.95;;;12.30;99.90;;;;;;6697979;88;20285;-78
2021/09/02 05:52:55;;;;;;;56.53;19.87;;;12.40;99.90;;;;;;6704003;88;20655;-77
2021/09/02 06:02:56;;;;;;;54.55;19.17;;;12.30;99.90;;;;;;6702536;88;20792;-77
2021/09/02 06:12:57;;;;;;;47.60;18.67;;;12.30;99.90;;;;;;6698033;88;20198;-78
2021/09/02 06:22:57;;;;;;;46.60;18.67;;;12.50;99.90;;;;;;6695030;88;20745;-77
2021/09/02 06:32:58;;;;;;;46.60;18.27;;;12.50;99.90;;;;;;6696136;88;20525;-77
2021/09/02 06:42:59;;;;;;;47.90;17.35;;;12.50;99.90;;;;;;6696813;88;20236;-78
2021/09/02 06:52:59;;;;;;;46.83;17.95;;;12.70;99.90;;;;;;6702333;88;20208;-78
2021/09/02 07:03:00;;;;;;;45.12;17.37;;;12.70;99.90;;;;;;6699090;88;20593;-78
2021/09/02 07:13:00;;;;;;;45.40;17.12;;;12.90;99.90;;;;;;6698021;88;20197;-76
2021/09/02 07:23:01;;;;;;;43.67;17.02;;;13.10;99.90;;;;;;6697733;88;20194;-78
2021/09/02 07:33:02;;;;;;;39.45;15.32;;;13.40;99.90;;;;;;6699963;88;20634;-77
2021/09/02 07:43:02;;;;;;;36.83;16.35;;;13.30;99.90;;;;;;6699054;88;20205;-77
2021/09/02 07:53:03;;;;;;;36.15;15.70;;;14.00;99.90;;;;;;6702287;88;20190;-78
2021/09/02 08:03:04;;;;;;;30.27;14.77;;;14.30;99.90;;;;;;6698866;88;20243;-77
2021/09/02 08:13:04;;;;;;;34.42;15.23;;;14.70;99.90;;;;;;6699485;88;20193;-78
2021/09/02 08:23:05;;;;;;;32.03;15.60;;;15.00;99.90;;;;;;6699170;88;20211;-78
2021/09/02 08:33:06;;;;;;;31.95;15.35;;;15.30;99.90;;;;;;6700038;88;20781;-78
2021/09/02 08:43:07;;;;;;;31.02;15.40;;;15.50;99.90;;;;;;6698864;88;20210;-77
2021/09/02 08:53:08;;;;;;;29.17;15.20;;;15.90;99.90;;;;;;6698942;88;20270;-78
2021/09/02 09:03:09;;;;;;;31.55;16.48;;;16.60;99.90;;;;;;6698747;88;20197;-77
2021/09/02 09:13:10;;;;;;;27.67;15.23;;;16.20;99.90;;;;;;6699167;88;20196;-78
2021/09/02 09:23:11;;;;;;;25.80;14.40;;;17.00;99.90;;;;;;6699242;88;20618;-78
2021/09/02 09:33:16;;;;;;;23.98;14.20;;;19.30;99.90;;;;;;6699071;88;20226;-78
2021/09/02 09:43:24;;;;;;;21.75;12.63;;;20.50;99.90;;;;;;6695011;88;20214;-78
2021/09/02 09:53:26;;;;;;;22.35;12.00;;;20.40;99.90;;;;;;6682569;88;20317;-78
2021/09/02 10:03:29;;;;;;;21.35;11.85;;;21.80;99.90;;;;;;6682326;88;20200;-79
2021/09/02 10:13:31;;;;;;;16.05;10.25;;;21.60;99.90;;;;;;6681667;88;20995;-77
2021/09/02 10:23:32;;;;;;;17.17;10.88;;;24.20;99.90;;;;;;6684614;88;20181;-78
2021/09/02 10:33:42;;;;;;;20.92;10.75;;;25.70;99.90;;;;;;6702649;88;20236;-76
2021/09/02 10:43:47;;;;;;;16.65;10.88;;;26.10;99.90;;;;;;6703452;88;20293;-77
2021/09/02 10:53:49;;;;;;;16.92;10.35;;;27.10;99.00;;;;;;6702702;88;20205;-76
2021/09/02 11:03:51;;;;;;;18.53;9.33;;;27.60;98.60;;;;;;6698290;88;20178;-78
2021/09/02 11:13:52;;;;;;;;;;;27.70;98.70;;;;;;6699134;88;20324;-76
2021/09/02 11:23:58;;;;;;;13.38;7.57;;;29.20;96.80;;;;;;6699518;88;20125;-76
2021/09/02 11:34:00;;;;;;;9.52;5.87;;;29.30;95.90;;;;;;6698558;88;20224;-76
2021/09/02 11:44:02;;;;;;;14.57;6.20;;;29.40;95.20;;;;;;6698808;88;20189;-76
2021/09/02 11:54:06;;;;;;;10.90;5.28;;;29.70;94.70;;;;;;6699530;88;20197;-77
2021/09/02 12:04:07;;;;;;;7.72;4.47;;;29.80;94.30;;;;;;6698573;88;20325;-76
2021/09/02 12:14:25;;;;;;;7.30;4.78;;;30.60;91.70;;;;;;6699723;88;20985;-78
2021/09/02 12:24:32;;;;;;;8.45;4.50;;;30.50;91.30;;;;;;6700640;88;20194;-79
2021/09/02 12:34:33;;;;;;;8.27;4.87;;;29.50;92.50;;;;;;6700064;88;20195;-76
2021/09/02 12:44:36;;;;;;;6.75;4.00;;;28.70;92.50;;;;;;6700145;88;20823;-76
2021/09/02 12:55:14;;;;;;;7.12;3.97;;;29.50;91.80;;;;;;6702390;88;20306;-76
2021/09/02 13:05:16;;;;;;;6.53;3.85;;;30.20;91.00;;;;;;6694691;88;20637;-76
2021/09/02 13:15:16;;;;;;;7.28;3.80;;;30.50;89.30;;;;;;6694813;88;20191;-76
2021/09/02 13:25:19;;;;;;;5.50;3.40;;;31.00;88.00;;;;;;6700240;88;20203;-76
2021/09/02 13:35:20;;;;;;;6.62;3.42;;;29.80;89.20;;;;;;6693601;88;20247;-76
2021/09/02 13:45:20;;;;;;;5.62;3.20;;;28.90;89.90;;;;;;6699030;88;20667;-76
2021/09/02 13:55:21;;;;;;;5.85;3.80;;;29.20;88.30;;;;;;6699508;88;20186;-76
2021/09/02 14:05:21;;;;;;;6.87;3.30;;;29.10;86.70;;;;;;6698259;88;20201;-76
2021/09/02 14:15:22;;;;;;;9.23;3.50;;;29.30;83.70;;;;;;6698381;88;20194;-78
2021/09/02 14:25:23;;;;;;;8.63;3.35;;;27.90;86.50;;;;;;6697869;88;20709;-76
2021/09/02 14:35:23;;;;;;;6.65;3.33;;;27.50;84.80;;;;;;6698468;88;20179;-76
2021/09/02 14:45:24;;;;;;;8.68;3.58;;;27.70;86.80;;;;;;6697274;88;20305;-76
2021/09/02 14:55:25;;;;;;;7.32;3.42;;;27.40;87.40;;;;;;6696417;88;20250;-75
2021/09/02 15:05:25;;;;;;;5.20;3.37;;;29.10;85.30;;;;;;6697380;88;20191;-76
2021/09/02 15:15:27;;;;;;;5.15;3.50;;;27.70;85.10;;;;;;6697444;88;20210;-77
2021/09/02 15:25:28;;;;;;;6.95;3.15;;;27.20;86.00;;;;;;6697251;88;20212;-76
2021/09/02 15:35:28;;;;;;;6.00;3.72;;;27.40;86.80;;;;;;6697099;88;20211;-77
2021/09/02 15:45:29;;;;;;;4.82;3.17;;;26.90;87.00;;;;;;6701246;88;20617;-77
2021/09/02 15:55:29;;;;;;;6.78;3.60;;;26.70;87.40;;;;;;6702923;88;20580;-78
2021/09/02 16:05:30;;;;;;;6.30;3.55;;;26.40;87.20;;;;;;6703503;88;20210;-77
2021/09/02 16:15:31;;;;;;;5.95;3.42;;;26.50;86.30;;;;;;6700691;88;20766;-77
2021/09/02 16:25:31;;;;;;;4.90;3.12;;;26.10;89.70;;;;;;6701573;88;20194;-77
2021/09/02 16:35:33;;;;;;;8.30;3.33;;;25.80;89.70;;;;;;6701919;88;20226;-77
2021/09/02 16:45:34;;;;;;;6.32;3.53;;;26.00;90.20;;;;;;6697559;88;20210;-78
2021/09/02 16:55:34;;;;;;;5.93;3.50;;;25.80;90.30;;;;;;6702590;88;20214;-77
2021/09/02 17:05:35;;;;;;;5.90;3.70;;;25.10;91.40;;;;;;6702511;88;20247;-77
2021/09/02 17:15:36;;;;;;;5.77;3.70;;;24.90;92.30;;;;;;6700369;88;20210;-77
2021/09/02 17:25:36;;;;;;;6.90;3.50;;;24.50;93.30;;;;;;6701898;88;20558;-78
2021/09/02 17:35:38;;;;;;;5.28;3.37;;;23.90;94.30;;;;;;6703605;88;20319;-77
2021/09/02 17:45:38;;;;;;;6.10;3.42;;;23.60;94.90;;;;;;6702236;88;20667;-77
2021/09/02 17:55:39;;;;;;;6.50;3.95;;;23.40;95.70;;;;;;6703342;88;20202;-77
2021/09/02 18:05:39;;;;;;;9.60;5.00;;;22.90;98.10;;;;;;6702968;88;20678;-77
2021/09/02 18:15:40;;;;;;;8.15;4.60;;;22.20;99.60;;;;;;6702330;88;20237;-77
2021/09/02 18:25:40;;;;;;;10.55;6.20;;;21.50;99.90;;;;;;6698945;88;20213;-77
2021/09/02 18:35:41;;;;;;;9.80;5.15;;;21.00;99.90;;;;;;6704578;88;20652;-79
2021/09/02 18:45:42;;;;;;;21.85;13.32;;;20.70;99.90;;;;;;6704477;88;20274;-78
2021/09/02 18:55:42;;;;;;;12.93;8.07;;;20.40;99.90;;;;;;6704544;88;20608;-78
2021/09/02 19:05:43;;;;;;;11.30;7.43;;;19.90;99.90;;;;;;6701069;88;20195;-77
2021/09/02 19:15:44;;;;;;;9.80;6.10;;;19.60;99.90;;;;;;6704313;88;20194;-78
2021/09/02 19:25:47;;;;;;;9.55;6.20;;;19.20;99.90;;;;;;6703326;88;20225;-78
2021/09/02 19:35:48;;;;;;;10.35;5.32;;;19.00;99.90;;;;;;6700696;88;20223;-78
2021/09/02 19:45:49;;;;;;;8.18;5.05;;;18.50;99.90;;;;;;6700703;88;20499;-78
2021/09/02 19:55:53;;;;;;;9.63;5.60;;;18.40;99.90;;;;;;6701221;88;20361;-78
2021/09/02 20:06:06;;;;;;;7.68;5.60;;;18.10;99.90;;;;;;6700292;88;20285;-78
2021/09/02 20:16:07;;;;;;;10.07;6.40;;;17.80;99.90;;;;;;6699544;88;20179;-77
2021/09/02 20:26:08;;;;;;;9.57;6.37;;;17.70;99.90;;;;;;6696950;88;20211;-78
2021/09/02 20:36:14;;;;;;;11.68;6.70;;;17.60;99.90;;;;;;6701339;88;20729;-78
2021/09/02 20:46:15;;;;;;;13.85;7.37;;;17.40;99.90;;;;;;6694927;88;20180;-77
2021/09/02 20:56:16;;;;;;;10.32;6.30;;;17.20;99.90;;;;;;6696373;88;20198;-77
2021/09/02 21:06:17;;;;;;;10.43;6.50;;;17.20;99.90;;;;;;6696297;88;20200;-77
2021/09/02 21:16:19;;;;;;;11.40;7.10;;;16.80;99.90;;;;;;6694766;88;20723;-77
2021/09/02 21:26:21;;;;;;;9.88;6.87;;;16.60;99.90;;;;;;6695864;88;20640;-77
2021/09/02 21:36:24;;;;;;;13.88;7.53;;;16.50;99.90;;;;;;6697126;88;20309;-77
2021/09/02 21:46:41;;;;;;;11.88;7.00;;;16.40;99.90;;;;;;6701989;88;20198;-78
2021/09/02 21:56:45;;;;;;;11.90;6.70;;;16.30;99.90;;;;;;6703123;88;20279;-78
2021/09/02 22:06:46;;;;;;;9.73;6.47;;;16.10;99.90;;;;;;6697130;88;20181;-78
2021/09/02 22:16:53;;;;;;;10.30;6.37;;;16.10;99.90;;;;;;6696983;88;20644;-77
2021/09/02 22:26:55;;;;;;;12.02;7.12;;;15.90;99.90;;;;;;6695531;88;20195;-77
2021/09/02 22:36:57;;;;;;;13.00;7.97;;;15.60;99.90;;;;;;6696420;88;20191;-77
2021/09/02 22:46:58;;;;;;;12.02;7.05;;;15.50;99.90;;;;;;6695859;88;20202;-76
2021/09/02 22:56:59;;;;;;;12.15;6.90;;;15.40;99.90;;;;;;6695734;88;20202;-78
2021/09/02 23:07:06;;;;;;;12.43;6.75;;;15.40;99.90;;;;;;6695839;88;20222;-77
2021/09/02 23:17:30;;;;;;;12.93;6.95;;;15.40;99.90;;;;;;6696845;88;20174;-77
2021/09/02 23:27:33;;;;;;;9.27;6.68;;;15.50;99.90;;;;;;6679096;89;20358;-77
2021/09/02 23:37:35;;;;;;;10.52;5.87;;;15.20;99.90;;;;;;6678756;89;20191;-77
2021/09/02 23:47:38;;;;;;;12.25;6.50;;;15.20;99.90;;;;;;6678622;89;20787;-78
2021/09/02 23:57:38;;;;;;;12.68;6.65;;;15.00;99.90;;;;;;6678320;89;20294;-77
